Terminal Aerodrome Forecast
Issued by NWS Charleston, WV

Home | Current Version | Previous Version | Text Only | Print | Product List | Glossary On
Versions: 1 2 3 4 5 6 7 8 9 10 11 12 13 14 15 16 17 18 19 20 21 22 23 24 25 26 27 28 29 30 31 32 33
000
FTUS41 KRLX 292338
TAFCRW
TAF
KCRW 292338Z 3000/3024 00000KT P6SM VCSH BKN050
     FM300300 VRB03KT 4SM BR BKN060
     FM300500 00000KT 1SM BR BKN001
     FM301300 00000KT 2SM BR BKN005
     FM301400 VRB03KT 4SM HZ BKN015
     FM301500 VRB03KT P6SM BKN035
     FM301700 VRB03KT P6SM VCTS BKN045CB=

USA.gov is the U.S. government's official web portal to all federal, state and local government web resources and services.